地図

経路データ

SID SEASON NUMBER BASIN SUBBASIN NAME ISO_TIME NATURE LAT LON WMO_WIND WMO_PRES WMO_AGENCY TRACK_TYPE DIST2LAND LANDFALL IFLAG USA_AGENCY USA_ATCF_ID USA_LAT USA_LON USA_RECORD USA_STATUS USA_WIND USA_PRES USA_SSHS USA_R34_NE USA_R34_SE USA_R34_SW USA_R34_NW USA_R50_NE USA_R50_SE USA_R50_SW USA_R50_NW USA_R64_NE USA_R64_SE USA_R64_SW USA_R64_NW USA_POCI USA_ROCI USA_RMW USA_EYE TOKYO_LAT TOKYO_LON TOKYO_GRADE TOKYO_WIND TOKYO_PRES TOKYO_R50_DIR TOKYO_R50_LONG TOKYO_R50_SHORT TOKYO_R30_DIR TOKYO_R30_LONG TOKYO_R30_SHORT TOKYO_LAND CMA_LAT CMA_LON CMA_CAT CMA_WIND CMA_PRES HKO_LAT HKO_LON HKO_CAT HKO_WIND HKO_PRES NEWDELHI_LAT NEWDELHI_LON NEWDELHI_GRADE NEWDELHI_WIND NEWDELHI_PRES NEWDELHI_CI NEWDELHI_DP NEWDELHI_POCI REUNION_LAT REUNION_LON REUNION_TYPE REUNION_WIND REUNION_PRES REUNION_TNUM REUNION_CI REUNION_RMW REUNION_R34_NE REUNION_R34_SE REUNION_R34_SW REUNION_R34_NW REUNION_R50_NE REUNION_R50_SE REUNION_R50_SW REUNION_R50_NW REUNION_R64_NE REUNION_R64_SE REUNION_R64_SW REUNION_R64_NW BOM_LAT BOM_LON BOM_TYPE BOM_WIND BOM_PRES BOM_TNUM BOM_CI BOM_RMW BOM_R34_NE BOM_R34_SE BOM_R34_SW BOM_R34_NW BOM_R50_NE BOM_R50_SE BOM_R50_SW BOM_R50_NW BOM_R64_NE BOM_R64_SE BOM_R64_SW BOM_R64_NW BOM_ROCI BOM_POCI BOM_EYE BOM_POS_METHOD BOM_PRES_METHOD NADI_LAT NADI_LON NADI_CAT NADI_WIND NADI_PRES WELLINGTON_LAT WELLINGTON_LON WELLINGTON_WIND WELLINGTON_PRES DS824_LAT DS824_LON DS824_STAGE DS824_WIND DS824_PRES TD9636_LAT TD9636_LON TD9636_STAGE TD9636_WIND TD9636_PRES TD9635_LAT TD9635_LON TD9635_WIND TD9635_PRES TD9635_ROCI NEUMANN_LAT NEUMANN_LON NEUMANN_CLASS NEUMANN_WIND NEUMANN_PRES MLC_LAT MLC_LON MLC_CLASS MLC_WIND MLC_PRES USA_GUST BOM_GUST BOM_GUST_PER REUNION_GUST REUNION_GUST_PER USA_SEAHGT USA_SEARAD_NE USA_SEARAD_SE USA_SEARAD_SW USA_SEARAD_NW STORM_SPEED STORM_DIR
1991301N10083 1991 86 NI BB NOT_NAMED 1991-10-28 00:00:00 NR 10.0000 83.0000 1004 newdelhi main 245 211 ____O_________ -1 10.0000 83.0000 1004 0.00000 2 1006 12 295
1991301N10083 1991 86 NI BB NOT_NAMED 1991-10-28 03:00:00 NR 10.2503 82.4502 main 217 188 ____P_________ -1 10.2503 82.4502 1003 3 1006 11 297
1991301N10083 1991 86 NI BB NOT_NAMED 1991-10-28 06:00:00 NR 10.5000 82.0000 25 1002 newdelhi main 188 180 ____O_________ -1 10.5000 82.0000 25 1002 1.50000 4 1006 9 305
1991301N10083 1991 86 NI BB NOT_NAMED 1991-10-28 09:00:00 NR 10.7499 81.7124 main 185 174 ____P_________ -1 10.7499 81.7124 25 1001 4 1005 7 315
1991301N10083 1991 86 NI BB NOT_NAMED 1991-10-28 12:00:00 NR 11.0000 81.5000 25 1000 newdelhi main 174 152 ____O_________ -1 11.0000 81.5000 25 1000 1.50000 4 1004 7 318
1991301N10083 1991 86 NI BB NOT_NAMED 1991-10-28 15:00:00 NR 11.2500 81.2500 main 141 124 ____P_________ -1 11.2500 81.2500 25 1000 4 1004 7 315
1991301N10083 1991 86 NI BB NOT_NAMED 1991-10-28 18:00:00 NR 11.5000 81.0000 25 1000 newdelhi main 124 103 ____O_________ -1 11.5000 81.0000 25 1000 1.50000 4 1004 7 318
1991301N10083 1991 86 NI BB NOT_NAMED 1991-10-28 21:00:00 NR 11.7498 80.7873 main 103 58 ____P_________ -1 11.7498 80.7873 25 999 4 1003 7 316
1991301N10083 1991 86 NI BB NOT_NAMED 1991-10-29 00:00:00 NR 12.0000 80.5000 25 998 newdelhi main 58 0 ____O_________ -1 12.0000 80.5000 25 998 1.50000 4 1002 9 305
1991301N10083 1991 86 NI BB NOT_NAMED 1991-10-29 03:00:00 NR 12.2877 80.0003 main 0 0 ____P_________ -1 12.2877 80.0003 25 999 4 1003 11 297
1991301N10083 1991 86 NI BB NOT_NAMED 1991-10-29 06:00:00 NR 12.5000 79.5000 25 1000 newdelhi main 0 0 ____O_________ -1 12.5000 79.5000 25 1000 0.00000 4 1004 8 285
1991301N10083 1991 86 NI BB NOT_NAMED 1991-10-29 09:00:00 NR 12.4998 79.2122 main 0 0 ____P_________ -1 12.4998 79.2122 25 999 4 1003 5 270
1991301N10083 1991 86 NI BB NOT_NAMED 1991-10-29 12:00:00 NR 12.5000 79.0000 25 998 newdelhi main 0 0 ____O_________ -1 12.5000 79.0000 25 998 0.00000 4 1002 5 299
1991301N10083 1991 86 NI BB NOT_NAMED 1991-10-29 15:00:00 NR 12.7500 78.7502 main 0 0 ____P_________ -1 12.7500 78.7502 25 999 4 1003 7 316
1991301N10083 1991 86 NI BB NOT_NAMED 1991-10-29 18:00:00 NR 13.0000 78.5000 25 1000 newdelhi main 0 0 ____O_________ -1 13.0000 78.5000 25 1000 0.00000 4 1004 6 300
1991301N10083 1991 86 NI BB NOT_NAMED 1991-10-29 21:00:00 NR 13.0375 78.2499 main 0 0 ____P_________ -1 13.0375 78.2499 25 1000 4 1004 5 270
1991301N10083 1991 86 NI AS NOT_NAMED 1991-10-30 00:00:00 NR 13.0000 78.0000 25 1000 newdelhi main 0 0 ____O_________ -1 13.0000 78.0000 25 1000 0.00000 4 1004 5 266
1991301N10083 1991 86 NI AS NOT_NAMED 1991-10-30 03:00:00 NR 13.0000 77.7125 main 0 0 ____P_________ -1 13.0000 77.7125 25 1000 4 1004 5 270
1991301N10083 1991 86 NI AS NOT_NAMED 1991-10-30 06:00:00 NR 13.0000 77.5000 25 1000 newdelhi main 0 0 ____O_________ -1 13.0000 77.5000 25 1000 0.00000 4 1004 2 270
1991301N10083 1991 86 NI AS NOT_NAMED 1991-10-30 09:00:00 NR 12.9999 77.5000 main 0 0 ____P_________ -1 12.9999 77.5000 20 1001 3 1004 0 0
1991301N10083 1991 86 NI AS NOT_NAMED 1991-10-30 12:00:00 NR 13.0000 77.5000 15 1002 newdelhi main 0 0 ____O_________ -1 13.0000 77.5000 15 1002 0.00000 2 1004 2 270
1991301N10083 1991 86 NI AS NOT_NAMED 1991-10-30 15:00:00 NR 13.0001 77.3125 main 0 0 ____P_________ -1 13.0001 77.3125 15 1003 2 1005 5 270
1991301N10083 1991 86 NI AS NOT_NAMED 1991-10-30 18:00:00 NR 13.0000 77.0000 15 1004 newdelhi main 0 ____O_________ -1 13.0000 77.0000 15 1004 0.00000 2 1006 6 270

IBTrACS Databaseについて

本データベースは、米国NOAAが公開する1842年以降の世界の熱帯低気圧のベストトラックデータアーカイブInternational Best Track Archive for Climate Stewardship (IBTrACS)を、ウェブで閲覧しやすい形式に変換したものです。

最終更新日:2021-10-08